Time;durP1;ratioP1;P1;durP2;ratioP2;P2;SDS_P1;SDS_P2;PMS_P1;PMS_P2;Temp;Humidity;BMP_temperature;BMP_pressure;BME280_temperature;BME280_humidity;BME280_pressure;Samples;Min_cycle;Max_cycle;Signal;HPM_P1;HPM_P2
2023/12/06 00:04:08;;;;;;;79.85;45.78;;;;;;;;;;10326612;28;20086;-67
2023/12/06 00:09:06;;;;;;;71.03;39.08;;;;;;;;;;10327396;28;20079;-66
2023/12/06 00:14:06;;;;;;;68.50;36.33;;;;;;;;;;10328176;28;20076;-66
2023/12/06 00:19:04;;;;;;;73.57;38.03;;;;;;;;;;10326697;28;20470;-66
2023/12/06 00:24:04;;;;;;;73.60;38.45;;;;;;;;;;10325799;28;20075;-66
2023/12/06 00:29:03;;;;;;;71.35;39.83;;;;;;;;;;10326086;28;20517;-67
2023/12/06 00:34:02;;;;;;;112.95;37.58;;;;;;;;;;10327193;28;20076;-67
2023/12/06 00:39:01;;;;;;;81.05;38.05;;;;;;;;;;10326637;28;20072;-67
2023/12/06 00:44:01;;;;;;;65.50;38.13;;;;;;;;;;10326111;28;20071;-67
2023/12/06 00:49:00;;;;;;;65.50;35.20;;;;;;;;;;10328057;28;20480;-66
2023/12/06 00:53:59;;;;;;;76.15;38.58;;;;;;;;;;10327254;28;20083;-67
2023/12/06 00:58:58;;;;;;;67.90;38.05;;;;;;;;;;10326198;28;20083;-67
2023/12/06 01:03:57;;;;;;;64.13;35.90;;;;;;;;;;10331261;28;20082;-66
2023/12/06 01:08:55;;;;;;;64.43;38.53;;;;;;;;;;10333103;28;20498;-67
2023/12/06 01:13:55;;;;;;;60.08;35.40;;;;;;;;;;10333002;28;20086;-68
2023/12/06 01:18:53;;;;;;;65.22;37.83;;;;;;;;;;10333573;28;20143;-67
2023/12/06 01:23:52;;;;;;;59.00;35.80;;;;;;;;;;10334582;28;20461;-67
2023/12/06 01:28:50;;;;;;;55.90;35.58;;;;;;;;;;10333890;28;20070;-68
2023/12/06 01:33:50;;;;;;;51.08;33.17;;;;;;;;;;10333890;28;20068;-67
2023/12/06 01:38:48;;;;;;;54.63;33.90;;;;;;;;;;10332000;28;20072;-67
2023/12/06 01:43:46;;;;;;;46.80;31.10;;;;;;;;;;10333025;28;20068;-67
2023/12/06 01:48:45;;;;;;;48.83;31.65;;;;;;;;;;10333270;28;20481;-66
2023/12/06 01:53:46;;;;;;;51.72;31.73;;;;;;;;;;10332948;28;20080;-67
2023/12/06 01:58:44;;;;;;;50.90;32.13;;;;;;;;;;10332313;28;20068;-66
2023/12/06 02:03:43;;;;;;;52.90;32.70;;;;;;;;;;10331124;28;20075;-66
2023/12/06 02:08:42;;;;;;;52.97;33.13;;;;;;;;;;10334766;28;20923;-67
2023/12/06 02:13:42;;;;;;;54.95;32.15;;;;;;;;;;10330070;28;20083;-66
2023/12/06 02:18:41;;;;;;;46.47;30.98;;;;;;;;;;10331100;28;20080;-67
2023/12/06 02:23:40;;;;;;;53.05;33.45;;;;;;;;;;10331576;28;20469;-67
2023/12/06 02:28:40;;;;;;;50.72;33.03;;;;;;;;;;10330573;28;20087;-67
2023/12/06 02:33:38;;;;;;;60.28;33.70;;;;;;;;;;10331321;28;20082;-68
2023/12/06 02:38:37;;;;;;;61.63;35.05;;;;;;;;;;10329704;28;20048;-67
2023/12/06 02:43:36;;;;;;;54.28;32.13;;;;;;;;;;10326974;28;20083;-66
2023/12/06 02:48:36;;;;;;;51.25;32.67;;;;;;;;;;10329237;28;20072;-67
2023/12/06 02:53:34;;;;;;;53.47;34.38;;;;;;;;;;10331346;28;20075;-67
2023/12/06 02:58:32;;;;;;;123.63;67.95;;;;;;;;;;10329206;28;20064;-67
2023/12/06 03:03:30;;;;;;;64.90;43.20;;;;;;;;;;10329666;28;20095;-67
2023/12/06 03:08:30;;;;;;;77.10;47.58;;;;;;;;;;10312394;28;20076;-67
2023/12/06 03:13:28;;;;;;;76.22;45.80;;;;;;;;;;10327465;28;20083;-67
2023/12/06 03:18:27;;;;;;;69.38;41.67;;;;;;;;;;10329787;28;20064;-66
2023/12/06 03:23:26;;;;;;;53.80;33.88;;;;;;;;;;10328974;28;20090;-66
2023/12/06 03:28:26;;;;;;;52.78;33.55;;;;;;;;;;10314923;28;20080;-67
2023/12/06 03:33:24;;;;;;;53.22;36.90;;;;;;;;;;10328645;28;20482;-67
2023/12/06 03:38:23;;;;;;;55.25;33.20;;;;;;;;;;10328187;28;20091;-67
2023/12/06 03:43:21;;;;;;;55.28;35.80;;;;;;;;;;10326538;28;20072;-67
2023/12/06 03:48:21;;;;;;;57.42;37.13;;;;;;;;;;10330030;28;20075;-66
2023/12/06 03:53:19;;;;;;;50.58;36.55;;;;;;;;;;10326908;28;20068;-66
2023/12/06 03:58:18;;;;;;;52.80;33.33;;;;;;;;;;10328545;28;20064;-66
2023/12/06 04:03:16;;;;;;;58.35;35.45;;;;;;;;;;10328360;28;20072;-67
2023/12/06 04:08:16;;;;;;;63.40;34.08;;;;;;;;;;10326143;28;20079;-68
2023/12/06 04:13:16;;;;;;;55.70;34.67;;;;;;;;;;10328374;28;20433;-67
2023/12/06 04:18:15;;;;;;;54.55;35.22;;;;;;;;;;10324604;28;20082;-67
2023/12/06 04:23:13;;;;;;;57.60;35.55;;;;;;;;;;10325537;28;20072;-67
2023/12/06 04:28:13;;;;;;;65.00;41.60;;;;;;;;;;10327059;28;20072;-66
2023/12/06 04:33:12;;;;;;;69.30;42.28;;;;;;;;;;10325949;28;20075;-67
2023/12/06 04:38:10;;;;;;;79.07;51.30;;;;;;;;;;10324709;28;20535;-66
2023/12/06 04:43:08;;;;;;;56.53;37.22;;;;;;;;;;10328482;28;20086;-67
2023/12/06 04:48:08;;;;;;;55.90;35.60;;;;;;;;;;10329945;28;20079;-67
2023/12/06 04:53:06;;;;;;;59.67;37.42;;;;;;;;;;10326589;28;20136;-66
2023/12/06 04:58:05;;;;;;;53.60;34.60;;;;;;;;;;10328239;28;20080;-67
2023/12/06 05:03:04;;;;;;;51.38;36.78;;;;;;;;;;10327720;28;20079;-66
2023/12/06 05:08:04;;;;;;;64.28;37.20;;;;;;;;;;10325299;28;20064;-66
2023/12/06 05:13:02;;;;;;;53.38;36.00;;;;;;;;;;10327544;28;20071;-66
2023/12/06 05:18:02;;;;;;;59.65;35.45;;;;;;;;;;10305692;28;20080;-66
2023/12/06 05:23:00;;;;;;;70.40;40.95;;;;;;;;;;10319228;28;20502;-66
2023/12/06 05:28:00;;;;;;;59.10;38.70;;;;;;;;;;10307657;28;20505;-66
2023/12/06 05:32:58;;;;;;;66.25;39.50;;;;;;;;;;10323637;28;20060;-67
2023/12/06 05:37:58;;;;;;;69.93;40.42;;;;;;;;;;10268737;28;20086;-66
2023/12/06 05:42:57;;;;;;;62.88;38.85;;;;;;;;;;10303267;28;20846;-68
2023/12/06 05:47:57;;;;;;;70.72;42.33;;;;;;;;;;10312876;28;20064;-66
2023/12/06 05:52:55;;;;;;;70.05;39.78;;;;;;;;;;10311695;28;20132;-65
2023/12/06 05:57:54;;;;;;;62.20;41.88;;;;;;;;;;10329658;28;20071;-65
2023/12/06 06:02:53;;;;;;;83.38;47.17;;;;;;;;;;10332802;28;20067;-66
2023/12/06 06:07:54;;;;;;;74.15;44.40;;;;;;;;;;10326440;28;20278;-67
2023/12/06 06:12:52;;;;;;;66.45;40.25;;;;;;;;;;10326912;28;20106;-66
2023/12/06 06:17:50;;;;;;;61.63;40.60;;;;;;;;;;10325185;28;20072;-68
2023/12/06 06:22:48;;;;;;;53.40;38.22;;;;;;;;;;10300798;28;20148;-67
2023/12/06 06:27:48;;;;;;;56.05;39.47;;;;;;;;;;10293143;28;20136;-66
2023/12/06 06:32:46;;;;;;;59.67;38.20;;;;;;;;;;10298484;28;20047;-68
2023/12/06 06:37:46;;;;;;;62.72;43.92;;;;;;;;;;10313547;28;21351;-68
2023/12/06 06:42:45;;;;;;;60.10;43.83;;;;;;;;;;10323947;28;20068;-68
2023/12/06 06:47:45;;;;;;;64.10;34.80;;;;;;;;;;10312193;28;20136;-70
2023/12/06 06:52:45;;;;;;;51.13;33.90;;;;;;;;;;10327178;28;20531;-70
2023/12/06 06:57:43;;;;;;;42.20;28.48;;;;;;;;;;10318326;28;20123;-71
2023/12/06 07:02:42;;;;;;;47.20;33.97;;;;;;;;;;10323887;28;20067;-69
2023/12/06 07:07:44;;;;;;;52.35;34.33;;;;;;;;;;10317516;28;20127;-68
2023/12/06 07:12:42;;;;;;;59.67;36.17;;;;;;;;;;10335830;28;20570;-68
2023/12/06 07:17:41;;;;;;;53.47;34.70;;;;;;;;;;10308727;28;20140;-68
2023/12/06 07:22:39;;;;;;;50.42;29.33;;;;;;;;;;10327837;28;20067;-68
2023/12/06 07:27:39;;;;;;;38.80;28.05;;;;;;;;;;10303416;28;20957;-68
2023/12/06 07:32:37;;;;;;;37.65;26.80;;;;;;;;;;10320195;28;20056;-69
2023/12/06 07:37:49;;;;;;;38.90;26.17;;;;;;;;;;10302200;28;20143;-69
2023/12/06 07:42:49;;;;;;;38.92;27.67;;;;;;;;;;10300375;28;20127;-69
2023/12/06 07:47:47;;;;;;;37.25;27.13;;;;;;;;;;10300831;28;20492;-69
2023/12/06 07:52:47;;;;;;;38.97;30.65;;;;;;;;;;10295513;28;20060;-68
2023/12/06 07:57:45;;;;;;;41.25;30.75;;;;;;;;;;10317759;28;20139;-68
2023/12/06 08:02:45;;;;;;;42.20;33.42;;;;;;;;;;10304851;28;20068;-68
2023/12/06 08:07:43;;;;;;;47.42;37.50;;;;;;;;;;10320362;28;20072;-68
2023/12/06 08:12:41;;;;;;;35.47;27.65;;;;;;;;;;10322448;28;21069;-68
2023/12/06 08:17:40;;;;;;;31.25;25.88;;;;;;;;;;10326687;28;20067;-68
2023/12/06 08:22:41;;;;;;;33.20;26.02;;;;;;;;;;10325433;28;20079;-69
2023/12/06 08:27:40;;;;;;;43.78;31.70;;;;;;;;;;10325451;28;20068;-69
2023/12/06 08:32:38;;;;;;;45.63;30.77;;;;;;;;;;10326039;28;20075;-68
2023/12/06 08:37:36;;;;;;;44.70;31.67;;;;;;;;;;10326521;28;20090;-68
2023/12/06 08:42:36;;;;;;;71.32;63.58;;;;;;;;;;10325742;28;20072;-69
2023/12/06 08:47:34;;;;;;;44.17;35.75;;;;;;;;;;10322777;28;20060;-69
2023/12/06 08:52:32;;;;;;;42.45;34.88;;;;;;;;;;10326938;28;20076;-69
2023/12/06 08:57:31;;;;;;;38.22;31.20;;;;;;;;;;10328595;28;20552;-70
2023/12/06 09:02:30;;;;;;;46.83;38.38;;;;;;;;;;10328182;28;20072;-68
2023/12/06 09:07:28;;;;;;;65.53;44.92;;;;;;;;;;10325800;28;20068;-69
2023/12/06 09:12:27;;;;;;;51.17;35.78;;;;;;;;;;10327417;28;20524;-69
2023/12/06 09:17:25;;;;;;;63.85;47.92;;;;;;;;;;10325503;28;20072;-69
2023/12/06 09:22:25;;;;;;;61.88;43.25;;;;;;;;;;10326932;28;20437;-69
2023/12/06 09:27:23;;;;;;;98.82;59.38;;;;;;;;;;10333333;28;20525;-70
2023/12/06 09:32:23;;;;;;;32.80;25.08;;;;;;;;;;10332162;28;20551;-68
2023/12/06 09:37:23;;;;;;;35.55;25.08;;;;;;;;;;10333577;28;20582;-69
2023/12/06 09:42:24;;;;;;;28.33;22.67;;;;;;;;;;10321181;28;20206;-68
2023/12/06 09:47:23;;;;;;;40.38;30.17;;;;;;;;;;10334384;28;20449;-69
2023/12/06 09:52:22;;;;;;;27.50;22.48;;;;;;;;;;10333592;28;20138;-70
2023/12/06 09:57:23;;;;;;;20.35;16.27;;;;;;;;;;10332535;28;20087;-69
2023/12/06 10:02:22;;;;;;;19.58;17.02;;;;;;;;;;10332217;28;20082;-69
2023/12/06 10:07:20;;;;;;;20.00;17.50;;;;;;;;;;10331145;28;20543;-69
2023/12/06 10:12:21;;;;;;;24.48;19.00;;;;;;;;;;10328077;28;20664;-69
2023/12/06 10:17:23;;;;;;;18.67;15.02;;;;;;;;;;10333168;28;20075;-69
2023/12/06 10:22:25;;;;;;;19.63;14.43;;;;;;;;;;10327354;28;20659;-69
2023/12/06 10:27:24;;;;;;;21.60;14.93;;;;;;;;;;10331191;28;20083;-69
2023/12/06 10:32:25;;;;;;;22.52;15.50;;;;;;;;;;10331564;28;20484;-68
2023/12/06 10:37:24;;;;;;;23.10;16.10;;;;;;;;;;10329817;28;20087;-68
2023/12/06 10:42:26;;;;;;;18.58;14.25;;;;;;;;;;10331365;28;20083;-68
2023/12/06 10:47:27;;;;;;;18.05;14.07;;;;;;;;;;10330633;28;20543;-68
2023/12/06 10:52:30;;;;;;;17.15;11.65;;;;;;;;;;10309918;28;20495;-68
2023/12/06 10:57:28;;;;;;;15.95;12.07;;;;;;;;;;10314159;28;20127;-68
2023/12/06 11:02:28;;;;;;;19.48;12.90;;;;;;;;;;10314904;28;20489;-67
2023/12/06 11:07:34;;;;;;;20.17;13.75;;;;;;;;;;10297257;28;20131;-67
2023/12/06 11:12:38;;;;;;;13.18;10.55;;;;;;;;;;10318696;28;20548;-66
2023/12/06 11:17:43;;;;;;;14.13;10.63;;;;;;;;;;10306414;28;20761;-67
2023/12/06 11:22:42;;;;;;;16.23;12.48;;;;;;;;;;10312528;28;20075;-67
2023/12/06 11:27:55;;;;;;;16.50;11.00;;;;;;;;;;10320702;28;20586;-68
2023/12/06 11:32:57;;;;;;;19.95;14.73;;;;;;;;;;10301258;28;21274;-69
2023/12/06 11:37:56;;;;;;;20.33;14.63;;;;;;;;;;10296026;28;20507;-69
2023/12/06 11:42:58;;;;;;;40.50;29.05;;;;;;;;;;10292952;28;20119;-69
2023/12/06 11:48:00;;;;;;;15.45;10.77;;;;;;;;;;10323489;28;20488;-70
2023/12/06 11:53:01;;;;;;;10.27;8.40;;;;;;;;;;10309734;28;20109;-69
2023/12/06 11:58:02;;;;;;;9.10;7.57;;;;;;;;;;10299795;28;20580;-69
2023/12/06 12:03:03;;;;;;;13.25;10.45;;;;;;;;;;10310113;28;20120;-70
2023/12/06 12:08:02;;;;;;;37.90;27.13;;;;;;;;;;10314934;28;20686;-69
2023/12/06 12:13:00;;;;;;;11.40;10.20;;;;;;;;;;10299536;28;20123;-69
2023/12/06 12:17:59;;;;;;;11.30;9.35;;;;;;;;;;10321505;28;20068;-69
2023/12/06 12:23:00;;;;;;;18.52;10.95;;;;;;;;;;10311850;28;20641;-68
2023/12/06 12:27:58;;;;;;;12.20;7.70;;;;;;;;;;10324267;28;20064;-67
2023/12/06 12:32:57;;;;;;;11.85;8.52;;;;;;;;;;10306198;28;20075;-69
2023/12/06 12:37:56;;;;;;;10.43;9.40;;;;;;;;;;10319425;28;20127;-68
2023/12/06 12:42:56;;;;;;;11.45;9.85;;;;;;;;;;10327922;28;20075;-68
2023/12/06 12:47:55;;;;;;;15.07;13.15;;;;;;;;;;10299536;28;20135;-67
2023/12/06 12:52:54;;;;;;;12.30;9.77;;;;;;;;;;10318563;28;20063;-68
2023/12/06 12:57:52;;;;;;;18.25;13.90;;;;;;;;;;10291123;28;20208;-68
2023/12/06 13:02:53;;;;;;;17.27;14.50;;;;;;;;;;10337325;28;20509;-68
2023/12/06 13:07:52;;;;;;;9.38;8.40;;;;;;;;;;10323195;28;20718;-67
2023/12/06 13:12:50;;;;;;;9.85;8.85;;;;;;;;;;10332580;28;20421;-67
2023/12/06 13:17:49;;;;;;;11.85;10.55;;;;;;;;;;10313939;28;20143;-67
2023/12/06 13:22:48;;;;;;;11.15;9.77;;;;;;;;;;10318457;28;20124;-68
2023/12/06 13:27:47;;;;;;;10.05;8.88;;;;;;;;;;10321306;28;20131;-68
2023/12/06 13:32:45;;;;;;;11.60;9.52;;;;;;;;;;10321811;28;20135;-68
2023/12/06 13:37:43;;;;;;;11.90;9.77;;;;;;;;;;10320751;28;20076;-68
2023/12/06 13:42:43;;;;;;;12.98;11.02;;;;;;;;;;10294341;28;20135;-68
2023/12/06 13:47:41;;;;;;;20.77;18.63;;;;;;;;;;10326133;28;20071;-67
2023/12/06 13:52:40;;;;;;;23.55;20.92;;;;;;;;;;10333791;28;20480;-68
2023/12/06 13:57:38;;;;;;;18.58;16.65;;;;;;;;;;10301983;28;20050;-68
2023/12/06 14:02:38;;;;;;;14.18;12.65;;;;;;;;;;10295269;28;20739;-68
2023/12/06 14:07:37;;;;;;;15.13;13.63;;;;;;;;;;10296751;28;20557;-68
2023/12/06 14:12:35;;;;;;;16.13;14.32;;;;;;;;;;10322129;28;21603;-68
2023/12/06 14:17:34;;;;;;;18.98;16.98;;;;;;;;;;10330795;28;20486;-68
2023/12/06 14:22:34;;;;;;;17.08;14.60;;;;;;;;;;10315960;28;20159;-68
2023/12/06 14:27:32;;;;;;;15.85;14.20;;;;;;;;;;10328774;28;20078;-67
2023/12/06 14:32:30;;;;;;;18.73;16.85;;;;;;;;;;10334740;28;20066;-68
2023/12/06 14:37:29;;;;;;;24.13;21.52;;;;;;;;;;10315586;28;20139;-68
2023/12/06 14:42:28;;;;;;;29.88;26.77;;;;;;;;;;10300496;28;20122;-68
2023/12/06 14:47:27;;;;;;;40.78;32.42;;;;;;;;;;10313212;28;21229;-69
2023/12/06 14:52:25;;;;;;;58.25;37.17;;;;;;;;;;10331182;28;20082;-68
2023/12/06 14:57:23;;;;;;;57.13;33.40;;;;;;;;;;10326797;28;20071;-67
2023/12/06 15:02:23;;;;;;;44.90;28.55;;;;;;;;;;10306740;28;21339;-69
2023/12/06 15:07:22;;;;;;;27.13;23.52;;;;;;;;;;10324416;28;20079;-68
2023/12/06 15:12:21;;;;;;;31.38;25.25;;;;;;;;;;10326277;28;20068;-69
2023/12/06 15:17:20;;;;;;;53.83;36.00;;;;;;;;;;10325953;28;20325;-70
2023/12/06 15:22:19;;;;;;;28.88;24.45;;;;;;;;;;10328160;28;20064;-68
2023/12/06 15:27:18;;;;;;;31.25;26.23;;;;;;;;;;10324712;28;20075;-68
2023/12/06 15:32:16;;;;;;;23.58;20.88;;;;;;;;;;10327275;28;20072;-68
2023/12/06 15:37:14;;;;;;;24.40;21.77;;;;;;;;;;10327973;28;20079;-68
2023/12/06 15:42:14;;;;;;;33.22;25.13;;;;;;;;;;10328803;28;20116;-68
2023/12/06 15:47:12;;;;;;;35.85;26.30;;;;;;;;;;10327956;28;20083;-67
2023/12/06 15:52:11;;;;;;;48.38;38.78;;;;;;;;;;10328983;28;20063;-68
2023/12/06 15:57:09;;;;;;;44.20;33.97;;;;;;;;;;10326622;28;20064;-70
2023/12/06 16:02:09;;;;;;;51.38;36.15;;;;;;;;;;10327196;28;20490;-69
2023/12/06 16:07:07;;;;;;;52.30;39.15;;;;;;;;;;10312794;28;20504;-69
2023/12/06 16:12:06;;;;;;;45.55;32.80;;;;;;;;;;10307450;28;20624;-69
2023/12/06 16:17:04;;;;;;;51.70;40.05;;;;;;;;;;10331825;28;20056;-69
2023/12/06 16:22:04;;;;;;;39.65;32.45;;;;;;;;;;10315871;28;20143;-68
2023/12/06 16:27:03;;;;;;;45.20;40.45;;;;;;;;;;10322904;28;20075;-68
2023/12/06 16:32:01;;;;;;;35.90;32.38;;;;;;;;;;10306701;28;20159;-69
2023/12/06 16:36:59;;;;;;;32.72;29.45;;;;;;;;;;10301507;28;20143;-68
2023/12/06 16:41:59;;;;;;;54.03;44.20;;;;;;;;;;10290963;28;20057;-67
2023/12/06 16:46:57;;;;;;;52.30;41.63;;;;;;;;;;10289489;28;20127;-67
2023/12/06 16:51:56;;;;;;;78.00;56.28;;;;;;;;;;10324584;28;20075;-67
2023/12/06 16:56:54;;;;;;;86.45;65.88;;;;;;;;;;10319316;28;20066;-68
2023/12/06 17:01:54;;;;;;;47.40;40.85;;;;;;;;;;10302551;28;20075;-68
2023/12/06 17:06:52;;;;;;;32.08;25.17;;;;;;;;;;10329793;28;20082;-69
2023/12/06 17:11:51;;;;;;;43.20;35.22;;;;;;;;;;10295943;28;20135;-69
2023/12/06 17:16:51;;;;;;;29.70;24.73;;;;;;;;;;10300185;28;20131;-69
2023/12/06 17:21:51;;;;;;;30.08;26.98;;;;;;;;;;10303748;28;20159;-71
2023/12/06 17:26:49;;;;;;;31.33;27.30;;;;;;;;;;10292853;28;20143;-68
2023/12/06 17:31:50;;;;;;;22.85;18.10;;;;;;;;;;10290917;28;20127;-68
2023/12/06 17:36:49;;;;;;;25.75;22.98;;;;;;;;;;10283151;28;20036;-69
2023/12/06 17:41:48;;;;;;;24.13;20.77;;;;;;;;;;10295220;28;20139;-69
2023/12/06 17:46:47;;;;;;;25.05;20.55;;;;;;;;;;10289408;28;20428;-68
2023/12/06 17:51:45;;;;;;;36.20;31.40;;;;;;;;;;10316998;28;20131;-70
2023/12/06 17:56:44;;;;;;;42.08;32.88;;;;;;;;;;10333507;28;20461;-69
2023/12/06 18:01:46;;;;;;;48.53;41.85;;;;;;;;;;10336359;28;20068;-68
2023/12/06 18:06:45;;;;;;;45.20;37.00;;;;;;;;;;10339489;28;20072;-69
2023/12/06 18:11:43;;;;;;;51.17;41.75;;;;;;;;;;10294920;28;20557;-69
2023/12/06 18:16:42;;;;;;;95.03;67.65;;;;;;;;;;10320622;28;20075;-68
2023/12/06 18:21:42;;;;;;;64.65;46.55;;;;;;;;;;10321939;28;20138;-69
2023/12/06 18:26:43;;;;;;;22.48;17.60;;;;;;;;;;10300741;28;20123;-69
2023/12/06 18:31:43;;;;;;;49.03;33.95;;;;;;;;;;10299995;28;20147;-69
2023/12/06 18:36:42;;;;;;;74.28;43.50;;;;;;;;;;10308345;28;20132;-69
2023/12/06 18:41:41;;;;;;;70.00;37.15;;;;;;;;;;10302249;28;20572;-68
2023/12/06 18:46:39;;;;;;;29.38;17.80;;;;;;;;;;10288115;28;20613;-69
2023/12/06 18:51:38;;;;;;;18.67;15.05;;;;;;;;;;10302260;28;20076;-69
2023/12/06 18:56:37;;;;;;;46.03;32.63;;;;;;;;;;10327332;28;21093;-69
2023/12/06 19:01:35;;;;;;;33.45;25.85;;;;;;;;;;10313354;28;20569;-69
2023/12/06 19:06:34;;;;;;;25.38;19.05;;;;;;;;;;10334899;28;20592;-69
2023/12/06 19:11:32;;;;;;;25.90;13.63;;;;;;;;;;10330275;28;20072;-67
2023/12/06 19:16:32;;;;;;;43.83;23.27;;;;;;;;;;10314737;28;20913;-69
2023/12/06 19:21:30;;;;;;;46.45;38.97;;;;;;;;;;10316967;28;20068;-69
2023/12/06 19:26:29;;;;;;;80.43;45.25;;;;;;;;;;10325978;28;20075;-70
2023/12/06 19:31:29;;;;;;;165.90;35.80;;;;;;;;;;10289366;28;20502;-70
2023/12/06 19:36:32;;;;;;;59.10;29.50;;;;;;;;;;10302331;28;20143;-70
2023/12/06 19:41:31;;;;;;;71.35;25.27;;;;;;;;;;10310609;28;20151;-68
2023/12/06 19:46:29;;;;;;;74.93;23.90;;;;;;;;;;10285179;28;20063;-69
2023/12/06 19:51:27;;;;;;;92.65;25.02;;;;;;;;;;10285356;28;20036;-70
2023/12/06 19:56:27;;;;;;;31.23;25.48;;;;;;;;;;10285108;28;20131;-69
2023/12/06 20:01:25;;;;;;;48.65;26.17;;;;;;;;;;10283880;28;20041;-69
2023/12/06 20:06:23;;;;;;;50.25;38.22;;;;;;;;;;10282438;28;20131;-69
2023/12/06 20:11:22;;;;;;;24.90;18.05;;;;;;;;;;10283840;28;21221;-68
2023/12/06 20:16:21;;;;;;;18.25;14.20;;;;;;;;;;10283628;28;20054;-67
2023/12/06 20:21:20;;;;;;;30.52;23.23;;;;;;;;;;10286759;28;20040;-68
2023/12/06 20:26:19;;;;;;;29.95;17.73;;;;;;;;;;10283211;28;20530;-67
2023/12/06 20:31:17;;;;;;;20.00;13.10;;;;;;;;;;10283963;28;20119;-68
2023/12/06 20:36:17;;;;;;;18.60;15.32;;;;;;;;;;10287377;28;20128;-68
2023/12/06 20:41:16;;;;;;;28.73;16.17;;;;;;;;;;10297241;28;21759;-68
2023/12/06 20:46:15;;;;;;;16.80;13.32;;;;;;;;;;10304637;28;20156;-69
2023/12/06 20:51:14;;;;;;;22.55;17.33;;;;;;;;;;10299825;28;20131;-68
2023/12/06 20:56:17;;;;;;;19.50;13.02;;;;;;;;;;10288983;28;20139;-69
2023/12/06 21:01:16;;;;;;;18.48;13.98;;;;;;;;;;10283956;28;20044;-67
2023/12/06 21:06:14;;;;;;;17.42;12.85;;;;;;;;;;10286832;28;21275;-67
2023/12/06 21:11:12;;;;;;;18.48;13.68;;;;;;;;;;10290258;28;20146;-69
2023/12/06 21:16:12;;;;;;;23.30;15.40;;;;;;;;;;10305090;28;20135;-69
2023/12/06 21:21:11;;;;;;;15.85;11.32;;;;;;;;;;10286501;28;20052;-70
2023/12/06 21:26:09;;;;;;;17.15;15.35;;;;;;;;;;10298857;28;20132;-69
2023/12/06 21:31:08;;;;;;;16.75;12.38;;;;;;;;;;10310887;28;20140;-69
2023/12/06 21:36:08;;;;;;;17.23;13.07;;;;;;;;;;10277718;28;20135;-69
2023/12/06 21:41:06;;;;;;;15.38;12.73;;;;;;;;;;10319963;28;20164;-70
2023/12/06 21:46:05;;;;;;;14.85;13.38;;;;;;;;;;10320860;28;20139;-68
2023/12/06 21:51:03;;;;;;;16.35;12.38;;;;;;;;;;10329248;28;20501;-70
2023/12/06 21:56:03;;;;;;;19.08;15.23;;;;;;;;;;10327682;28;20091;-69
2023/12/06 22:01:01;;;;;;;16.17;14.18;;;;;;;;;;10331138;28;20072;-69
2023/12/06 22:06:00;;;;;;;16.25;14.35;;;;;;;;;;10327548;28;20079;-70
2023/12/06 22:10:58;;;;;;;16.55;14.07;;;;;;;;;;10329826;28;20064;-70
2023/12/06 22:15:58;;;;;;;15.02;12.90;;;;;;;;;;10332881;28;20086;-69
2023/12/06 22:20:56;;;;;;;16.98;12.35;;;;;;;;;;10330399;28;20072;-68
2023/12/06 22:25:55;;;;;;;20.23;13.13;;;;;;;;;;10332865;28;20064;-69
2023/12/06 22:30:53;;;;;;;14.98;13.40;;;;;;;;;;10330854;28;20524;-69
2023/12/06 22:35:53;;;;;;;16.85;13.02;;;;;;;;;;10331167;28;20480;-68
2023/12/06 22:41:11;;;;;;;13.57;12.23;;;;;;;;;;10330784;28;20083;-68
2023/12/06 22:46:09;;;;;;;12.43;11.15;;;;;;;;;;10331579;28;20064;-68
2023/12/06 22:51:09;;;;;;;12.48;11.23;;;;;;;;;;10330582;28;20083;-69
2023/12/06 22:56:07;;;;;;;15.55;11.90;;;;;;;;;;10330658;28;20056;-69
2023/12/06 23:01:06;;;;;;;11.75;10.13;;;;;;;;;;10329388;28;20076;-69
2023/12/06 23:06:04;;;;;;;14.25;11.55;;;;;;;;;;10325387;28;20150;-68
2023/12/06 23:11:08;;;;;;;15.20;12.60;;;;;;;;;;10329638;28;20444;-68
2023/12/06 23:16:06;;;;;;;11.93;10.73;;;;;;;;;;10326475;28;20536;-69
2023/12/06 23:21:05;;;;;;;14.43;11.95;;;;;;;;;;10329006;28;20079;-68
2023/12/06 23:26:05;;;;;;;12.85;10.95;;;;;;;;;;10329993;28;20072;-68
2023/12/06 23:31:03;;;;;;;12.93;11.25;;;;;;;;;;10332676;28;20497;-68
2023/12/06 23:36:01;;;;;;;16.35;12.82;;;;;;;;;;10328300;28;20075;-69
2023/12/06 23:41:00;;;;;;;16.25;12.32;;;;;;;;;;10328923;28;20537;-69
2023/12/06 23:45:59;;;;;;;15.60;13.80;;;;;;;;;;10328692;28;20083;-68
2023/12/06 23:50:57;;;;;;;16.73;13.38;;;;;;;;;;10327860;28;20075;-67
2023/12/06 23:55:56;;;;;;;14.88;12.73;;;;;;;;;;10328339;28;20067;-68
